Japaratinga, Brazil
Current Conditions -  °F | °C
As of 9:00 AM on Friday 24 Oct 2014 (Local Time) from SBMO Reporting Station
Scattered Clouds Scattered Clouds  
Wind Chill: 75°   Ceiling: Unl
Heat Index: 75°   Visibility: 6mi
Dew Point: 72°   Wind: 14mph
Humidity: 89%   Direction: 100°E
Pressure: 30"   Gusts: NA
Location:  9.09°S, 35.26°W
Report Text: SBMO 241200Z 10012KT 9999 SCT018 24/22 Q1016
Loading
Personal Weather Stations






























Interactive Weather Map
Tropical Storm Tracking
New forecast layout! Learn more

10-Day Weather Forecast

Advertisements
Track Severe Weather on mobile